Berriatua, Spain
Current Conditions -  °F | °C
As of 3:00 PM on Monday 20 Oct 2014 (Local Time) from LEBB Reporting Station
Few Clouds Few Clouds  
Wind Chill: 72°   Ceiling: Unl
Heat Index: 72°   Visibility: 5mi
Dew Point: 64°   Wind: 14mph
Humidity: 78%   Direction: 300°WNW
Pressure: 30.09"   Gusts: NA
Location:  43.32°N, 2.47°W
Report Text: LEBB 201300Z 30012KT 260V320 8000 FEW010 22/18 Q1019 NOSIG
Loading
Personal Weather Stations






























Interactive Weather Map New forecast layout! Learn more

10-Day Weather Forecast

Advertisements
Track Severe Weather on mobile